Time;durP1;ratioP1;P1;durP2;ratioP2;P2;SDS_P1;SDS_P2;PMS_P1;PMS_P2;Temp;Humidity;BMP_temperature;BMP_pressure;BME280_temperature;BME280_humidity;BME280_pressure;Samples;Min_cycle;Max_cycle;Signal;HPM_P1;HPM_P2
2022/02/03 00:01:52;;;;;;;5.15;2.67;;;5.20;99.90;;;;;;5019471;28;20191;-88
2022/02/03 00:04:25;;;;;;;7.25;2.70;;;5.20;99.90;;;;;;5011429;28;20191;-88
2022/02/03 00:06:57;;;;;;;2.75;2.30;;;5.20;99.90;;;;;;5014483;28;20176;-88
2022/02/03 00:09:54;;;;;;;3.67;2.65;;;5.10;99.90;;;;;;5022297;28;20298;-88
2022/02/03 00:23:01;;;;;;;3.33;2.50;;;5.10;99.90;;;;;;5001202;28;20231;-89
2022/02/03 00:25:34;;;;;;;8.05;2.55;;;5.10;99.90;;;;;;5001071;28;20307;-88
2022/02/03 00:36:01;;;;;;;7.40;2.65;;;5.00;99.90;;;;;;5019220;28;20195;-89
2022/02/03 00:49:10;;;;;;;3.65;2.55;;;5.00;99.90;;;;;;4999054;28;20226;-88
2022/02/03 00:51:39;;;;;;;4.75;2.35;;;5.00;99.90;;;;;;4996386;28;20291;-88
2022/02/03 00:54:09;;;;;;;6.13;2.67;;;5.00;99.90;;;;;;4997341;28;20215;-88
2022/02/03 00:56:37;;;;;;;4.82;2.28;;;5.00;99.90;;;;;;5000022;28;20700;-86
2022/02/03 00:59:09;;;;;;;7.72;2.75;;;5.00;99.90;;;;;;5000119;28;20239;-88
2022/02/03 01:01:37;;;;;;;6.32;2.70;;;5.00;99.90;;;;;;4998913;28;20203;-88
2022/02/03 01:04:12;;;;;;;4.35;2.55;;;5.00;99.90;;;;;;5000814;28;20571;-89
2022/02/03 01:06:47;;;;;;;6.60;2.90;;;4.90;99.90;;;;;;4996445;28;20179;-88
2022/02/03 01:09:16;;;;;;;5.32;2.88;;;4.90;99.90;;;;;;4997017;28;20235;-88
2022/02/03 01:11:57;;;;;;;8.35;2.35;;;4.90;99.90;;;;;;4996082;28;20206;-88
2022/02/03 01:14:31;;;;;;;7.93;3.00;;;4.90;99.90;;;;;;4996068;28;20227;-88
2022/02/03 01:44:54;;;;;;;4.50;2.60;;;4.70;99.90;;;;;;4997567;28;20210;-88
2022/02/03 01:47:34;;;;;;;5.85;2.80;;;4.70;99.90;;;;;;5015163;28;20162;-88
2022/02/03 01:52:42;;;;;;;6.78;2.78;;;4.70;99.90;;;;;;5008456;28;20191;-88
2022/02/03 01:55:17;;;;;;;6.22;3.00;;;4.70;99.90;;;;;;5007922;28;20200;-89
2022/02/03 01:58:03;;;;;;;5.75;2.50;;;4.70;99.90;;;;;;5006310;28;20183;-88
2022/02/03 02:00:37;;;;;;;5.82;2.92;;;4.70;99.90;;;;;;5006674;28;20208;-89
2022/02/03 02:03:09;;;;;;;6.63;3.40;;;4.70;99.90;;;;;;4996282;28;20159;-89
2022/02/03 02:06:02;;;;;;;7.15;3.00;;;4.70;99.90;;;;;;4995411;28;20196;-89
2022/02/03 02:08:37;;;;;;;7.20;2.58;;;4.70;99.90;;;;;;4994721;28;20711;-88
2022/02/03 02:11:36;;;;;;;7.07;3.10;;;4.70;99.90;;;;;;4995071;28;20559;-88
2022/02/03 02:17:13;;;;;;;8.70;3.17;;;4.70;99.90;;;;;;4996083;28;20708;-88
2022/02/03 02:40:08;;;;;;;7.32;2.90;;;4.40;99.90;;;;;;4998485;28;20625;-88
2022/02/03 02:43:09;;;;;;;6.30;2.80;;;4.40;99.90;;;;;;4994559;28;20184;-88
2022/02/03 02:46:04;;;;;;;4.32;2.50;;;4.40;99.90;;;;;;4989498;28;20223;-89
2022/02/03 02:48:55;;;;;;;4.07;2.28;;;4.30;99.90;;;;;;4981389;28;20268;-88
2022/02/03 02:51:33;;;;;;;6.70;3.10;;;4.30;99.90;;;;;;4994246;28;20204;-88
2022/02/03 02:57:18;;;;;;;4.15;2.10;;;4.30;99.90;;;;;;4995774;28;20164;-88
2022/02/03 03:37:46;;;;;;;4.80;3.40;;;4.10;99.90;;;;;;5009538;28;20167;-88
2022/02/03 03:40:15;;;;;;;7.60;3.30;;;4.10;99.90;;;;;;5011563;28;20231;-88
2022/02/03 03:42:51;;;;;;;5.90;3.35;;;4.00;99.90;;;;;;4999440;28;20183;-89
2022/02/03 03:45:20;;;;;;;7.07;3.47;;;4.00;99.90;;;;;;4998247;28;20226;-88
2022/02/03 03:47:47;;;;;;;4.75;3.20;;;4.00;99.90;;;;;;4997783;28;20179;-90
2022/02/03 03:50:16;;;;;;;5.93;2.42;;;4.00;99.90;;;;;;4994882;28;20239;-89
2022/02/03 03:53:00;;;;;;;4.60;2.92;;;4.00;99.90;;;;;;4993625;28;20211;-88
2022/02/03 04:00:55;;;;;;;4.15;2.55;;;3.90;99.90;;;;;;4994821;28;20223;-88
2022/02/03 04:30:19;;;;;;;5.38;2.80;;;3.70;99.90;;;;;;4998645;28;20575;-87
2022/02/03 04:44:13;;;;;;;3.00;2.63;;;3.70;99.90;;;;;;4997877;28;20184;-88
2022/02/03 04:56:50;;;;;;;5.07;2.90;;;3.70;99.90;;;;;;5004605;28;20222;-89
2022/02/03 05:02:46;;;;;;;5.10;2.75;;;3.70;99.90;;;;;;4936918;29;20170;-88
2022/02/03 05:21:55;;;;;;;4.82;2.30;;;4.10;99.90;;;;;;4996880;28;20203;-87
2022/02/03 05:44:57;;;;;;;6.05;3.05;;;3.70;99.90;;;;;;5011456;28;20211;-89
2022/02/03 05:54:43;;;;;;;3.97;3.53;;;3.50;99.90;;;;;;4981242;28;20407;-89
2022/02/03 06:01:47;;;;;;;3.88;2.80;;;3.40;99.90;;;;;;4996681;28;20258;-89
2022/02/03 06:14:25;;;;;;;13.15;6.47;;;3.40;99.90;;;;;;4995308;28;20341;-88
2022/02/03 06:27:27;;;;;;;5.03;3.63;;;3.30;99.90;;;;;;5003629;28;20167;-89
2022/02/03 06:29:56;;;;;;;4.18;3.08;;;3.30;99.90;;;;;;5009325;28;20234;-88
2022/02/03 06:32:25;;;;;;;6.60;3.10;;;3.30;99.90;;;;;;5002580;28;20347;-88
2022/02/03 06:34:52;;;;;;;5.55;3.47;;;3.30;99.90;;;;;;4991913;28;20227;-88
2022/02/03 06:37:22;;;;;;;9.27;4.72;;;3.20;99.90;;;;;;4993198;28;20563;-89
2022/02/03 06:39:48;;;;;;;12.38;4.40;;;3.20;99.90;;;;;;4981631;28;20215;-88
2022/02/03 06:42:13;;;;;;;4.40;3.47;;;3.20;99.90;;;;;;4990375;28;20214;-89
2022/02/03 06:44:53;;;;;;;4.30;3.50;;;3.10;99.90;;;;;;4975901;28;20428;-88
2022/02/03 06:47:45;;;;;;;4.93;3.47;;;3.10;99.90;;;;;;4987843;28;20441;-89
2022/02/03 06:50:37;;;;;;;3.33;2.97;;;3.10;99.90;;;;;;4990772;28;20207;-89
2022/02/03 06:53:07;;;;;;;6.70;4.10;;;3.10;99.90;;;;;;4989892;28;20192;-89
2022/02/03 06:58:25;;;;;;;5.00;3.10;;;3.10;99.90;;;;;;4992812;28;20218;-89
2022/02/03 07:01:00;;;;;;;5.35;3.70;;;3.20;99.90;;;;;;4992406;28;20299;-89
2022/02/03 07:03:29;;;;;;;3.30;2.97;;;3.20;99.90;;;;;;4980312;28;20195;-89
2022/02/03 07:05:56;;;;;;;5.72;3.70;;;3.30;99.90;;;;;;4996420;28;20826;-90
2022/02/03 07:08:22;;;;;;;5.95;3.58;;;3.30;99.90;;;;;;4998608;28;20176;-89
2022/02/03 07:10:51;;;;;;;7.82;3.33;;;3.40;99.90;;;;;;4997999;28;20748;-88
2022/02/03 07:13:17;;;;;;;4.57;2.80;;;3.50;99.90;;;;;;4992492;28;20645;-89
2022/02/03 07:15:42;;;;;;;4.60;3.50;;;3.60;99.90;;;;;;4993649;28;20226;-88
2022/02/03 07:18:08;;;;;;;5.67;3.20;;;3.70;99.90;;;;;;4992166;28;20699;-89
2022/02/03 07:20:37;;;;;;;7.40;4.13;;;3.70;99.90;;;;;;4991876;28;20428;-88
2022/02/03 07:23:05;;;;;;;4.05;2.80;;;3.80;99.90;;;;;;4991005;28;20433;-89
2022/02/03 07:25:31;;;;;;;4.35;3.20;;;3.90;99.90;;;;;;4997979;28;20191;-88
2022/02/03 07:27:57;;;;;;;4.40;3.08;;;4.10;99.90;;;;;;5006148;28;20214;-88
2022/02/03 07:30:23;;;;;;;5.30;3.00;;;4.50;99.90;;;;;;4993997;28;20230;-89
2022/02/03 07:32:55;;;;;;;4.75;3.05;;;4.80;99.90;;;;;;4991578;28;20218;-88
2022/02/03 07:35:21;;;;;;;4.15;2.47;;;5.20;99.90;;;;;;4988292;28;20227;-90
2022/02/03 07:37:48;;;;;;;6.47;4.07;;;5.50;99.90;;;;;;5006725;28;20593;-88
2022/02/03 07:40:16;;;;;;;5.72;3.20;;;5.70;99.90;;;;;;4991554;28;20435;-89
2022/02/03 07:42:44;;;;;;;5.20;2.85;;;5.80;99.90;;;;;;4992909;28;20183;-89
2022/02/03 07:45:10;;;;;;;5.80;3.05;;;5.90;99.90;;;;;;4979774;28;20212;-89
2022/02/03 07:47:43;;;;;;;8.57;3.20;;;5.90;99.90;;;;;;4991042;28;20190;-88
2022/02/03 07:50:09;;;;;;;3.63;2.45;;;5.90;99.90;;;;;;5019641;28;20187;-88
2022/02/03 07:52:34;;;;;;;5.73;3.43;;;6.00;99.90;;;;;;4993932;28;20262;-88
2022/02/03 07:55:01;;;;;;;4.43;3.00;;;6.20;99.90;;;;;;4993071;28;20587;-88
2022/02/03 07:57:27;;;;;;;5.25;3.40;;;6.40;99.90;;;;;;5008984;28;20185;-89
2022/02/03 07:59:55;;;;;;;5.97;4.60;;;6.70;99.90;;;;;;4995841;28;20302;-89
2022/02/03 08:02:21;;;;;;;5.93;4.25;;;7.30;99.90;;;;;;4995979;28;20180;-89
2022/02/03 08:04:48;;;;;;;46.08;27.52;;;8.00;99.90;;;;;;4996100;28;20625;-89
2022/02/03 08:07:17;;;;;;;4.28;3.83;;;8.90;99.90;;;;;;4996814;28;20179;-88
2022/02/03 08:12:21;;;;;;;8.10;5.10;;;10.80;99.90;;;;;;4997077;28;20187;-89
2022/02/03 08:14:49;;;;;;;7.50;4.18;;;11.60;99.90;;;;;;4996862;28;20306;-89
2022/02/03 08:17:21;;;;;;;3.85;3.03;;;12.40;99.90;;;;;;4994887;28;20624;-89
2022/02/03 08:19:56;;;;;;;6.20;4.47;;;13.00;98.70;;;;;;4993674;28;20565;-89
2022/02/03 08:22:28;;;;;;;3.95;3.45;;;13.50;97.50;;;;;;4988102;28;20219;-89
2022/02/03 08:25:13;;;;;;;8.50;4.50;;;14.00;95.60;;;;;;4996456;28;20211;-90
2022/02/03 08:30:57;;;;;;;11.30;8.63;;;15.10;92.30;;;;;;4963412;29;20466;-89
2022/02/03 08:33:23;;;;;;;8.80;6.37;;;15.60;91.40;;;;;;5006673;28;20495;-90
2022/02/03 08:35:50;;;;;;;8.80;6.80;;;16.10;90.00;;;;;;4995471;28;20449;-89
2022/02/03 08:38:28;;;;;;;6.97;5.17;;;16.40;87.50;;;;;;4993853;28;20187;-90
2022/02/03 08:43:21;;;;;;;8.03;7.20;;;17.20;83.30;;;;;;4992941;28;20465;-89
2022/02/03 08:45:47;;;;;;;9.43;5.30;;;17.60;82.20;;;;;;4997774;28;20250;-90
2022/02/03 08:48:15;;;;;;;6.07;4.60;;;18.00;80.50;;;;;;4994666;28;20854;-90
2022/02/03 08:50:42;;;;;;;8.27;4.00;;;18.30;77.60;;;;;;4993195;28;20525;-89
2022/02/03 08:55:46;;;;;;;4.07;2.83;;;18.80;74.70;;;;;;4995571;28;20472;-87
2022/02/03 09:57:06;;;;;;;3.83;2.90;;;19.00;64.60;;;;;;4993062;28;20453;-89
2022/02/03 09:59:39;;;;;;;2.90;2.57;;;18.90;64.30;;;;;;4994660;28;20444;-89
2022/02/03 10:02:09;;;;;;;11.23;9.27;;;18.90;64.70;;;;;;4988372;28;20939;-88
2022/02/03 10:04:54;;;;;;;6.60;4.87;;;18.70;63.90;;;;;;4992563;28;20446;-90
2022/02/03 10:07:28;;;;;;;3.53;2.70;;;18.20;64.60;;;;;;5002515;28;20506;-89
2022/02/03 10:09:57;;;;;;;5.10;2.93;;;17.70;65.30;;;;;;4981184;28;20481;-89
2022/02/03 10:12:35;;;;;;;5.10;3.03;;;17.20;65.00;;;;;;4993115;28;20801;-88
2022/02/03 10:15:04;;;;;;;10.87;7.87;;;16.60;66.50;;;;;;4989332;28;20492;-87
2022/02/03 10:17:35;;;;;;;10.03;9.03;;;16.10;67.80;;;;;;4988045;28;20942;-88
2022/02/03 10:20:08;;;;;;;7.03;6.00;;;15.80;68.20;;;;;;4994074;28;20446;-90
2022/02/03 10:22:47;;;;;;;3.83;3.43;;;15.50;68.50;;;;;;4993575;28;20424;-89
2022/02/03 10:25:20;;;;;;;6.33;4.73;;;15.30;68.90;;;;;;4984556;28;20492;-89
2022/02/03 10:27:59;;;;;;;5.73;4.50;;;15.20;69.50;;;;;;4994247;28;20811;-89
2022/02/03 10:30:28;;;;;;;5.77;5.10;;;15.00;69.80;;;;;;4989631;28;20457;-90
2022/02/03 10:32:54;;;;;;;3.87;3.37;;;14.80;70.60;;;;;;4993068;28;20452;-87
2022/02/03 10:35:49;;;;;;;6.07;3.63;;;14.60;71.10;;;;;;5005174;28;20521;-89
2022/02/03 10:49:38;;;;;;;4.03;3.30;;;13.80;71.00;;;;;;4989378;28;20459;-89
2022/02/03 11:03:02;;;;;;;3.40;3.10;;;13.30;72.80;;;;;;4990523;28;20863;-88
2022/02/03 11:05:57;;;;;;;6.83;3.23;;;13.30;71.40;;;;;;4989750;28;21165;-88
2022/02/03 11:08:36;;;;;;;3.20;2.90;;;13.20;71.20;;;;;;4992173;28;20437;-88
2022/02/03 11:11:03;;;;;;;4.20;3.27;;;13.10;70.50;;;;;;4987902;28;20959;-88
2022/02/03 11:13:33;;;;;;;4.37;3.37;;;13.00;70.60;;;;;;4989637;28;20477;-90
2022/02/03 11:16:04;;;;;;;4.00;2.53;;;12.80;70.90;;;;;;4990299;28;20449;-90
2022/02/03 11:18:31;;;;;;;3.47;2.90;;;12.60;70.90;;;;;;4988250;28;20532;-89
2022/02/03 11:20:59;;;;;;;3.50;2.90;;;12.40;71.40;;;;;;4993198;28;20488;-88
2022/02/03 11:28:49;;;;;;;3.33;3.03;;;12.00;72.10;;;;;;4991464;28;20290;-88
2022/02/03 11:39:46;;;;;;;4.03;2.90;;;11.50;72.20;;;;;;4989679;28;20253;-90
2022/02/03 12:16:28;;;;;;;5.57;3.83;;;10.70;74.40;;;;;;4990665;28;20249;-88
2022/02/03 12:19:14;;;;;;;7.32;3.83;;;10.80;75.30;;;;;;4987125;28;20429;-88
2022/02/03 12:21:53;;;;;;;6.10;3.30;;;10.80;74.00;;;;;;4986687;28;20624;-89
2022/02/03 12:24:37;;;;;;;5.97;3.33;;;10.90;73.90;;;;;;4995819;28;20196;-88
2022/02/03 12:27:31;;;;;;;4.07;3.00;;;11.00;75.50;;;;;;4978762;28;20323;-88
2022/02/03 12:30:15;;;;;;;7.65;3.90;;;11.10;74.70;;;;;;4988799;28;20212;-88
2022/02/03 12:36:59;;;;;;;4.95;4.35;;;11.30;74.20;;;;;;4988621;28;20250;-88
2022/02/03 12:38:36;;;;;;;4.80;3.60;;;11.60;73.90;;;;;;4988146;28;20548;-90
2022/02/03 12:41:18;;;;;;;3.95;2.97;;;11.70;73.70;;;;;;4984803;28;20647;-89
2022/02/03 12:43:59;;;;;;;8.63;5.50;;;11.70;72.30;;;;;;4989208;28;20195;-89
2022/02/03 12:46:26;;;;;;;4.78;4.15;;;11.70;72.50;;;;;;4998531;28;20562;-90
2022/02/03 12:48:57;;;;;;;2.55;2.35;;;11.60;72.70;;;;;;4993440;28;20188;-90
2022/02/03 12:51:23;;;;;;;4.10;2.95;;;11.50;72.00;;;;;;4987888;28;20343;-90
2022/02/03 12:53:49;;;;;;;4.00;3.60;;;11.30;72.20;;;;;;4991855;28;20216;-88
2022/02/03 12:56:15;;;;;;;5.55;4.28;;;11.20;72.80;;;;;;4995472;28;20207;-88
2022/02/03 12:58:46;;;;;;;6.50;4.67;;;11.10;73.00;;;;;;4988175;28;20212;-89
2022/02/03 13:01:17;;;;;;;6.18;5.00;;;11.10;73.80;;;;;;4996968;28;20208;-88
2022/02/03 13:03:49;;;;;;;7.20;6.50;;;11.00;74.40;;;;;;4985409;28;20197;-87
2022/02/03 13:06:22;;;;;;;8.00;4.90;;;11.00;73.90;;;;;;4991162;28;20207;-90
2022/02/03 13:08:54;;;;;;;6.50;4.80;;;11.00;74.40;;;;;;4985297;28;20236;-90
2022/02/03 13:11:37;;;;;;;7.53;4.28;;;10.90;74.30;;;;;;4986822;28;20548;-89
2022/02/03 13:16:52;;;;;;;6.18;5.28;;;10.80;74.30;;;;;;4989239;28;20267;-91
2022/02/03 13:19:25;;;;;;;7.60;4.10;;;10.70;74.30;;;;;;4997321;28;20195;-90
2022/02/03 13:26:57;;;;;;;8.80;5.72;;;10.60;74.50;;;;;;4993460;28;20186;-89
2022/02/03 13:29:32;;;;;;;6.88;3.95;;;10.60;74.70;;;;;;5000150;28;20223;-90
2022/02/03 13:32:12;;;;;;;2.90;2.50;;;10.60;74.50;;;;;;4991248;28;20293;-88
2022/02/03 13:34:50;;;;;;;10.13;4.30;;;10.50;73.80;;;;;;4990963;28;20630;-89
2022/02/03 13:37:25;;;;;;;5.90;4.00;;;10.50;75.00;;;;;;4992036;28;20187;-88
2022/02/03 13:40:07;;;;;;;4.75;3.13;;;10.40;74.30;;;;;;4994717;28;20207;-89
2022/02/03 13:42:33;;;;;;;6.75;4.28;;;10.30;74.50;;;;;;4998513;28;20201;-91
2022/02/03 13:45:05;;;;;;;6.10;4.18;;;10.30;75.20;;;;;;4990847;28;20211;-90
2022/02/03 13:47:35;;;;;;;4.57;3.70;;;10.20;75.10;;;;;;4992104;28;20554;-90
2022/02/03 13:50:20;;;;;;;7.20;5.28;;;10.20;75.50;;;;;;4992111;28;20226;-89
2022/02/03 14:15:44;;;;;;;9.70;7.40;;;9.70;76.40;;;;;;4994869;28;20290;-88
2022/02/03 14:18:18;;;;;;;5.65;4.70;;;9.60;77.60;;;;;;4994023;28;20266;-89
2022/02/03 14:20:59;;;;;;;8.05;4.90;;;9.70;78.40;;;;;;4994055;28;20204;-90
2022/02/03 14:28:56;;;;;;;4.88;3.20;;;9.90;76.50;;;;;;4992505;28;20664;-89
2022/02/03 14:31:22;;;;;;;3.58;3.25;;;10.00;76.60;;;;;;4991059;28;20191;-89
2022/02/03 14:33:48;;;;;;;5.47;2.70;;;10.00;76.20;;;;;;4989878;28;20212;-90
2022/02/03 14:36:18;;;;;;;4.67;3.50;;;10.00;75.80;;;;;;4996657;28;20770;-89
2022/02/03 14:38:52;;;;;;;6.75;5.22;;;9.90;76.60;;;;;;4992133;28;20219;-88
2022/02/03 14:43:47;;;;;;;4.18;2.78;;;9.80;77.10;;;;;;4990902;28;20191;-88
2022/02/03 14:46:15;;;;;;;4.43;3.10;;;9.80;76.80;;;;;;4990228;28;20614;-89
2022/02/03 14:48:43;;;;;;;4.35;3.95;;;9.80;76.60;;;;;;4989558;28;20246;-90
2022/02/03 14:51:14;;;;;;;7.85;4.30;;;9.80;77.20;;;;;;4992755;28;20195;-90
2022/02/03 14:53:54;;;;;;;5.65;3.30;;;9.80;78.20;;;;;;5002545;28;20219;-89
2022/02/03 14:59:05;;;;;;;5.07;3.33;;;9.90;78.60;;;;;;4993850;28;20211;-88
2022/02/03 15:01:34;;;;;;;5.70;3.67;;;10.10;78.90;;;;;;4992664;28;20787;-89
2022/02/03 15:04:05;;;;;;;4.00;2.95;;;10.40;78.90;;;;;;4993855;28;20180;-89
2022/02/03 15:06:44;;;;;;;5.47;2.85;;;10.80;77.70;;;;;;4992764;28;20290;-90
2022/02/03 15:14:10;;;;;;;15.90;7.72;;;11.70;75.30;;;;;;4999131;28;20238;-91
2022/02/03 15:16:37;;;;;;;21.43;10.23;;;11.80;73.80;;;;;;4992757;28;20200;-90
2022/02/03 15:19:03;;;;;;;13.13;6.28;;;11.80;73.90;;;;;;4990243;28;20569;-91
2022/02/03 15:21:29;;;;;;;18.20;9.87;;;11.70;74.20;;;;;;4991328;28;20195;-91
2022/02/03 15:23:55;;;;;;;14.63;9.45;;;11.60;74.70;;;;;;4989816;28;20524;-90
2022/02/03 15:26:21;;;;;;;12.48;8.90;;;11.40;75.30;;;;;;4990723;28;20231;-91
2022/02/03 15:28:47;;;;;;;18.90;8.90;;;11.20;76.00;;;;;;4997309;28;20215;-90
2022/02/03 15:31:14;;;;;;;15.80;10.25;;;11.00;76.70;;;;;;4992371;28;20302;-89
2022/02/03 15:33:43;;;;;;;17.52;12.00;;;10.80;77.10;;;;;;4994090;28;20224;-89
2022/02/03 15:36:13;;;;;;;38.58;24.63;;;10.70;77.90;;;;;;4993500;28;20204;-90
2022/02/03 15:38:47;;;;;;;17.02;10.27;;;10.40;76.60;;;;;;4992722;28;20188;-89
2022/02/03 15:41:21;;;;;;;19.63;12.88;;;10.20;76.20;;;;;;4992324;28;20541;-90
2022/02/03 15:43:49;;;;;;;5.75;4.00;;;10.00;76.40;;;;;;4983311;28;20195;-91
2022/02/03 15:46:17;;;;;;;4.88;3.00;;;9.80;76.40;;;;;;4988622;28;20298;-90
2022/02/03 16:17:18;;;;;;;32.78;20.13;;;8.10;81.70;;;;;;4990618;28;20210;-90
2022/02/03 16:25:23;;;;;;;18.40;16.58;;;7.80;82.90;;;;;;4987612;28;20216;-90
2022/02/03 16:52:50;;;;;;;104.25;52.45;;;6.80;85.50;;;;;;4998466;28;20163;-89
2022/02/03 16:55:20;;;;;;;126.88;78.90;;;6.70;85.70;;;;;;4996686;28;20351;-90
2022/02/03 16:57:49;;;;;;;135.90;76.20;;;6.60;86.20;;;;;;5007892;28;20256;-90
2022/02/03 17:00:16;;;;;;;203.43;92.93;;;6.60;86.00;;;;;;4996518;28;20234;-90
2022/02/03 17:02:42;;;;;;;449.38;169.65;;;6.50;86.60;;;;;;4986195;28;20232;-88
2022/02/03 17:05:09;;;;;;;409.47;166.60;;;6.50;87.00;;;;;;4995678;28;20517;-89
2022/02/03 17:07:35;;;;;;;416.33;182.32;;;6.40;86.50;;;;;;4996795;28;20408;-88
2022/02/03 17:10:01;;;;;;;521.73;215.93;;;6.40;86.50;;;;;;4995498;28;20247;-88
2022/02/03 17:12:27;;;;;;;818.92;344.75;;;6.30;86.40;;;;;;4996059;28;20885;-90
2022/02/03 17:14:52;;;;;;;1050.83;415.47;;;6.20;86.40;;;;;;4994586;28;20273;-90
2022/02/03 17:17:20;;;;;;;446.63;180.13;;;6.10;86.60;;;;;;4996635;28;20445;-90
2022/02/03 17:19:47;;;;;;;342.17;143.73;;;6.10;87.20;;;;;;4996216;28;20218;-89
2022/02/03 17:22:15;;;;;;;226.07;105.45;;;6.10;87.20;;;;;;4986729;28;20689;-89
2022/02/03 17:24:48;;;;;;;172.55;79.63;;;6.10;87.30;;;;;;5005089;28;20216;-90
2022/02/03 17:27:24;;;;;;;58.50;42.97;;;6.10;87.00;;;;;;4991786;28;20183;-90
2022/02/03 17:30:02;;;;;;;204.85;84.88;;;6.20;87.00;;;;;;4988450;28;20212;-90
2022/02/03 18:10:47;;;;;;;83.60;64.78;;;5.50;89.80;;;;;;4995737;28;20203;-91
2022/02/03 18:35:09;;;;;;;78.88;50.10;;;5.10;90.90;;;;;;5000428;28;20238;-91
2022/02/03 18:45:48;;;;;;;121.63;66.95;;;5.10;91.00;;;;;;4994502;28;20196;-90
2022/02/03 18:49:47;;;;;;;285.60;118.93;;;4.90;91.30;;;;;;4995572;28;20202;-89
2022/02/03 18:51:23;;;;;;;907.42;355.08;;;4.90;91.70;;;;;;4984833;28;20207;-89
2022/02/03 19:28:35;;;;;;;53.13;34.97;;;4.20;93.40;;;;;;4995559;28;20245;-91
2022/02/03 20:04:13;;;;;;;69.68;42.20;;;3.80;96.00;;;;;;4999346;28;20187;-89
2022/02/03 20:12:24;;;;;;;50.35;33.03;;;3.60;96.50;;;;;;4973309;29;20169;-89
2022/02/03 20:14:50;;;;;;;37.93;23.13;;;3.50;96.90;;;;;;4987074;28;20660;-89
2022/02/03 20:17:19;;;;;;;32.58;23.67;;;3.50;97.10;;;;;;4997878;28;20180;-91
2022/02/03 20:19:47;;;;;;;43.72;29.60;;;3.50;97.40;;;;;;5004021;28;20231;-90
2022/02/03 20:22:13;;;;;;;37.58;28.30;;;3.60;97.60;;;;;;5003110;28;20192;-91
2022/02/03 20:24:39;;;;;;;50.28;31.35;;;3.60;97.40;;;;;;5003338;28;20207;-91
2022/02/03 20:27:05;;;;;;;46.10;25.80;;;3.60;97.50;;;;;;5001204;28;20176;-90
2022/02/03 20:29:31;;;;;;;43.33;25.40;;;3.50;97.60;;;;;;4999751;28;20434;-92
2022/02/03 20:31:56;;;;;;;34.30;20.80;;;3.40;98.00;;;;;;5003993;28;20659;-90
2022/02/03 20:34:22;;;;;;;36.70;23.70;;;3.40;98.00;;;;;;4998459;28;20230;-89
2022/02/03 20:36:48;;;;;;;39.40;24.97;;;3.30;97.90;;;;;;4997727;28;20202;-90
2022/02/03 20:39:14;;;;;;;42.65;25.80;;;3.30;98.10;;;;;;4998867;28;20436;-91
2022/02/03 20:41:40;;;;;;;36.23;25.60;;;3.20;98.40;;;;;;4998583;28;20171;-89
2022/02/03 20:44:06;;;;;;;51.08;31.83;;;3.20;98.50;;;;;;4997230;28;20531;-89
2022/02/03 20:46:32;;;;;;;47.50;28.50;;;3.20;98.80;;;;;;4998135;28;20236;-91
2022/02/03 20:48:58;;;;;;;83.40;40.60;;;3.20;99.10;;;;;;4997432;28;20188;-91
2022/02/03 20:51:24;;;;;;;74.07;38.60;;;3.10;99.20;;;;;;4997475;28;20222;-89
2022/02/03 20:53:50;;;;;;;78.83;41.80;;;3.10;99.50;;;;;;4997223;28;20211;-89
2022/02/03 20:56:20;;;;;;;43.90;26.47;;;3.10;99.70;;;;;;4997247;28;20425;-89
2022/02/03 20:58:47;;;;;;;56.47;36.95;;;3.00;99.90;;;;;;4997275;28;20482;-89
2022/02/03 21:01:20;;;;;;;35.35;24.10;;;3.00;99.90;;;;;;4996817;28;20657;-91
2022/02/03 21:03:48;;;;;;;60.08;33.80;;;2.90;99.90;;;;;;4997077;28;20191;-91
2022/02/03 21:06:15;;;;;;;67.25;38.65;;;2.90;99.90;;;;;;4996346;28;20235;-91
2022/02/03 21:08:45;;;;;;;58.65;38.05;;;2.80;99.90;;;;;;4996902;28;20776;-91
2022/02/03 21:11:11;;;;;;;41.72;29.77;;;2.80;99.90;;;;;;5003064;28;20196;-90
2022/02/03 21:13:37;;;;;;;41.50;29.63;;;2.70;99.90;;;;;;5017417;28;20243;-89
2022/02/03 21:16:05;;;;;;;58.33;39.07;;;2.70;99.90;;;;;;4999064;28;21027;-89
2022/02/03 21:18:35;;;;;;;63.90;40.60;;;2.60;99.90;;;;;;4997137;28;20276;-91
2022/02/03 21:21:01;;;;;;;61.05;39.25;;;2.60;99.90;;;;;;4996431;28;20692;-90
2022/02/03 21:23:26;;;;;;;74.27;45.40;;;2.60;99.90;;;;;;4996655;28;20186;-89
2022/02/03 21:25:55;;;;;;;73.97;46.60;;;2.60;99.90;;;;;;4996760;28;20196;-92
2022/02/03 21:28:26;;;;;;;82.80;48.25;;;2.60;99.90;;;;;;4996376;28;20180;-91
2022/02/03 21:30:53;;;;;;;66.65;40.20;;;2.60;99.90;;;;;;4996730;28;20246;-89
2022/02/03 21:33:25;;;;;;;120.65;59.53;;;2.60;99.90;;;;;;4996488;28;20188;-89
2022/02/03 21:35:55;;;;;;;81.82;49.40;;;2.70;99.90;;;;;;4996545;28;20222;-89
2022/02/03 21:38:21;;;;;;;90.07;48.58;;;2.70;99.90;;;;;;4996776;28;20322;-89
2022/02/03 21:40:47;;;;;;;78.00;45.47;;;2.70;99.90;;;;;;4996039;28;20242;-89
2022/02/03 21:43:13;;;;;;;75.83;41.93;;;2.60;99.90;;;;;;4997240;28;20180;-89
2022/02/03 21:45:39;;;;;;;74.20;44.60;;;2.60;99.90;;;;;;4997402;28;20282;-89
2022/02/03 21:48:05;;;;;;;67.60;37.83;;;2.50;99.90;;;;;;4996283;28;20712;-89
2022/02/03 21:50:37;;;;;;;84.10;45.67;;;2.50;99.90;;;;;;4996017;28;20958;-89
2022/02/03 21:53:11;;;;;;;60.13;34.33;;;2.40;99.90;;;;;;4995963;28;20168;-89
2022/02/03 21:55:37;;;;;;;64.50;34.15;;;2.30;99.90;;;;;;4997239;28;20274;-89
2022/02/03 21:58:03;;;;;;;48.80;31.80;;;2.30;99.90;;;;;;4998321;28;20176;-89
2022/02/03 22:00:29;;;;;;;62.80;34.17;;;2.30;99.90;;;;;;4996065;28;20420;-89
2022/02/03 22:02:55;;;;;;;51.83;31.52;;;2.30;99.90;;;;;;5000252;28;20187;-89
2022/02/03 22:05:22;;;;;;;58.58;32.65;;;2.30;99.90;;;;;;5003691;28;20558;-91
2022/02/03 22:07:48;;;;;;;52.22;29.48;;;2.30;99.90;;;;;;4996910;28;20222;-90
2022/02/03 22:10:16;;;;;;;54.88;30.35;;;2.30;99.90;;;;;;4995191;28;20700;-91
2022/02/03 22:12:42;;;;;;;60.25;33.65;;;2.30;99.90;;;;;;4995750;28;20179;-89
2022/02/03 22:15:08;;;;;;;48.13;30.00;;;2.40;99.90;;;;;;4997210;28;20234;-90
2022/02/03 22:17:34;;;;;;;54.75;30.80;;;2.40;99.90;;;;;;4995541;28;20414;-91
2022/02/03 22:20:05;;;;;;;54.70;29.88;;;2.40;99.90;;;;;;4995766;28;20216;-91
2022/02/03 22:22:49;;;;;;;46.83;27.63;;;2.40;99.90;;;;;;4995924;28;20223;-91
2022/02/03 22:38:39;;;;;;;55.15;31.05;;;2.50;99.90;;;;;;4998533;28;20688;-91
2022/02/03 22:44:09;;;;;;;51.88;32.22;;;2.50;99.90;;;;;;4999482;28;20664;-89
2022/02/03 22:49:03;;;;;;;63.90;36.80;;;2.40;99.90;;;;;;4997892;28;20207;-92
2022/02/03 22:51:28;;;;;;;72.63;38.55;;;2.40;99.90;;;;;;4996260;28;20440;-89
2022/02/03 22:53:54;;;;;;;67.73;39.27;;;2.30;99.90;;;;;;4994966;28;20677;-89
2022/02/03 22:56:20;;;;;;;68.25;39.95;;;2.30;99.90;;;;;;4994861;28;20680;-89
2022/02/03 23:01:25;;;;;;;80.28;44.60;;;2.30;99.90;;;;;;4996081;28;20580;-90
2022/02/03 23:03:50;;;;;;;87.63;39.33;;;2.20;99.90;;;;;;4994882;28;20180;-91
2022/02/03 23:06:17;;;;;;;92.43;44.63;;;2.20;99.90;;;;;;4994862;28;20446;-89
2022/02/03 23:14:22;;;;;;;72.40;38.60;;;2.20;99.90;;;;;;4995611;28;20239;-91
2022/02/03 23:17:06;;;;;;;79.82;42.53;;;2.20;99.90;;;;;;4994590;28;20207;-89
2022/02/03 23:19:47;;;;;;;72.72;39.17;;;2.10;99.90;;;;;;4997420;28;20203;-91
2022/02/03 23:22:14;;;;;;;83.85;46.10;;;2.10;99.90;;;;;;4995256;28;20176;-89
2022/02/03 23:24:42;;;;;;;78.90;41.65;;;2.20;99.90;;;;;;4994781;28;20214;-90
2022/02/03 23:27:32;;;;;;;80.30;43.30;;;2.20;99.90;;;;;;4994282;28;20180;-90
2022/02/03 23:29:57;;;;;;;60.22;35.03;;;2.20;99.90;;;;;;4998376;28;20203;-89
2022/02/03 23:32:23;;;;;;;68.25;37.10;;;2.20;99.90;;;;;;5015131;28;20215;-90
2022/02/03 23:35:00;;;;;;;78.32;42.92;;;2.20;99.90;;;;;;4995907;28;20224;-91
2022/02/03 23:37:26;;;;;;;71.63;36.67;;;2.20;99.90;;;;;;4994296;28;20229;-91
2022/02/03 23:40:04;;;;;;;76.83;44.43;;;2.20;99.90;;;;;;4994553;28;20745;-92
2022/02/03 23:43:24;;;;;;;75.93;40.28;;;2.20;99.90;;;;;;4994399;28;20206;-89
